createdAt,value
2022-10-11T00:00:39.184Z,11.15
2022-10-11T00:03:41.508Z,11.25
2022-10-11T00:06:43.908Z,10.93
2022-10-11T00:09:46.640Z,10.37
2022-10-11T00:12:49.581Z,10.57
2022-10-11T00:15:52.244Z,12.45
2022-10-11T00:18:54.664Z,11.90
2022-10-11T00:21:57.030Z,10.87
2022-10-11T00:24:59.510Z,11.07
2022-10-11T00:28:01.905Z,11.05
2022-10-11T00:31:13.643Z,10.88
2022-10-11T00:34:18.097Z,10.48
2022-10-11T00:37:20.615Z,10.57
2022-10-11T00:40:23.028Z,10.53
2022-10-11T00:43:29.106Z,10.27
2022-10-11T00:46:31.875Z,10.27
2022-10-11T00:49:37.889Z,9.68
2022-10-11T00:52:49.902Z,11.00
2022-10-11T00:56:00.335Z,10.17
2022-10-11T00:59:06.427Z,10.65
2022-10-11T01:02:09.925Z,10.52
2022-10-11T01:05:32.209Z,10.40
2022-10-11T01:08:34.674Z,10.10
2022-10-11T01:11:41.188Z,10.03
2022-10-11T01:14:46.580Z,10.55
2022-10-11T01:18:09.172Z,10.20
2022-10-11T01:21:26.092Z,9.93
2022-10-11T01:24:43.484Z,10.27
2022-10-11T01:27:55.752Z,9.97
2022-10-11T01:31:04.788Z,10.18
2022-10-11T01:34:33.627Z,9.00
2022-10-11T01:37:53.730Z,9.15
2022-10-11T01:41:00.239Z,9.57
2022-10-11T01:44:05.380Z,9.23
2022-10-11T01:47:07.740Z,9.30
2022-10-11T01:50:46.276Z,9.18
2022-10-11T01:54:07.367Z,10.05
2022-10-11T01:57:28.237Z,9.00
2022-10-11T02:01:00.585Z,8.60
2022-10-11T02:04:37.603Z,9.10
2022-10-11T02:07:57.649Z,8.32
2022-10-11T02:11:20.230Z,8.95
2022-10-11T02:14:26.963Z,8.90
2022-10-11T02:17:35.650Z,9.60
2022-10-11T02:20:41.344Z,9.65
2022-10-11T02:23:53.463Z,9.45
2022-10-11T02:26:58.831Z,10.55
2022-10-11T02:30:04.115Z,10.13
2022-10-11T02:33:11.278Z,10.33
2022-10-11T02:36:55.619Z,10.43
2022-10-11T02:40:07.072Z,10.27
2022-10-11T02:43:17.973Z,10.95
2022-10-11T02:46:21.554Z,11.33
2022-10-11T02:49:23.980Z,11.93
2022-10-11T02:52:27.140Z,12.20
2022-10-11T02:55:29.497Z,12.48
2022-10-11T02:58:31.921Z,11.88
2022-10-11T03:01:34.389Z,11.70
2022-10-11T03:04:36.884Z,11.90
2022-10-11T03:07:39.238Z,11.73
2022-10-11T03:10:42.516Z,11.38
2022-10-11T03:13:44.939Z,11.45
2022-10-11T03:16:47.270Z,11.70
2022-10-11T03:19:49.859Z,11.90
2022-10-11T03:22:52.188Z,11.40
2022-10-11T03:25:54.621Z,11.38
2022-10-11T03:28:57.109Z,11.35
2022-10-11T03:31:59.545Z,11.83
2022-10-11T03:35:01.898Z,10.87
2022-10-11T03:38:04.334Z,10.80
2022-10-11T03:41:07.127Z,11.40
2022-10-11T03:44:09.466Z,11.55
2022-10-11T03:47:12.782Z,11.67
2022-10-11T03:50:15.170Z,12.07
2022-10-11T03:53:17.737Z,12.00
2022-10-11T03:56:20.100Z,11.77
2022-10-11T03:59:22.429Z,11.60
2022-10-11T04:02:25.085Z,11.17
2022-10-11T04:05:27.521Z,11.83
2022-10-11T04:08:29.986Z,11.88
2022-10-11T04:11:32.785Z,10.68
2022-10-11T04:14:35.170Z,10.43
2022-10-11T04:17:37.515Z,10.37
2022-10-11T04:20:40.091Z,9.73
2022-10-11T04:23:42.490Z,10.18
2022-10-11T04:26:44.886Z,11.38
2022-10-11T04:29:47.189Z,11.60
2022-10-11T04:32:49.567Z,11.33
2022-10-11T04:35:56.203Z,10.67
2022-10-11T04:38:58.684Z,10.75
2022-10-11T04:42:01.001Z,10.80
2022-10-11T04:45:03.683Z,11.20
2022-10-11T04:48:06.391Z,11.13
2022-10-11T04:51:08.854Z,10.70
2022-10-11T04:54:11.222Z,10.70
2022-10-11T04:57:13.550Z,12.15
2022-10-11T05:00:16.284Z,11.45
2022-10-11T05:03:18.600Z,11.20
2022-10-11T05:06:21.162Z,12.50
2022-10-11T05:09:24.060Z,16.58
2022-10-11T05:12:27.050Z,17.48
2022-10-11T05:15:29.695Z,17.02
2022-10-11T05:18:32.165Z,18.17
2022-10-11T05:21:46.447Z,25.23
2022-10-11T05:24:54.857Z,21.33
2022-10-11T05:27:57.638Z,19.60
2022-10-11T05:31:00.414Z,22.05
2022-10-11T05:34:02.989Z,18.43
2022-10-11T05:37:05.538Z,14.47
2022-10-11T05:40:08.807Z,14.38
2022-10-11T05:43:12.012Z,13.45
2022-10-11T05:46:15.265Z,11.65
2022-10-11T05:49:17.833Z,11.57
2022-10-11T05:52:21.554Z,13.27
2022-10-11T05:55:24.480Z,14.07
2022-10-11T05:58:27.212Z,15.98
2022-10-11T06:03:32.074Z,14.80
2022-10-11T06:06:53.251Z,13.85
2022-10-11T06:10:14.210Z,11.60
2022-10-11T06:13:35.885Z,12.53
2022-10-11T06:16:56.936Z,11.48
2022-10-11T06:20:18.028Z,11.15
2022-10-11T06:23:39.210Z,12.65
2022-10-11T06:27:00.484Z,11.75
2022-10-11T06:30:21.564Z,11.73
2022-10-11T06:33:42.472Z,13.32
2022-10-11T06:37:03.684Z,13.20
2022-10-11T06:40:24.523Z,12.73
2022-10-11T06:43:46.112Z,11.85
2022-10-11T06:47:07.766Z,11.23
2022-10-11T06:50:54.518Z,11.05
2022-10-11T06:54:10.191Z,11.48
2022-10-11T06:57:30.982Z,12.32
2022-10-11T07:00:51.879Z,12.35
2022-10-11T07:04:12.827Z,12.80
2022-10-11T07:07:33.592Z,12.65
2022-10-11T07:11:00.113Z,13.40
2022-10-11T07:14:21.140Z,13.13
2022-10-11T07:17:42.318Z,11.90
2022-10-11T07:21:04.454Z,10.30
2022-10-11T07:24:25.740Z,9.63
2022-10-11T07:27:46.540Z,10.50
2022-10-11T07:31:16.690Z,10.98
2022-10-11T07:34:37.629Z,10.90
2022-10-11T07:37:58.599Z,10.50
2022-10-11T07:41:19.911Z,11.25
2022-10-11T07:44:40.888Z,12.85
2022-10-11T07:48:01.853Z,11.05
2022-10-11T07:51:24.591Z,11.07
2022-10-11T07:54:48.726Z,10.53
2022-10-11T07:58:11.154Z,10.85
2022-10-11T08:01:33.189Z,10.48
2022-10-11T08:04:54.391Z,10.02
2022-10-11T08:08:15.753Z,10.27
2022-10-11T08:11:37.727Z,9.83
2022-10-11T08:14:58.937Z,10.55
2022-10-11T08:18:20.268Z,10.25
2022-10-11T08:21:41.404Z,10.05
2022-10-11T08:25:02.475Z,10.70
2022-10-11T08:28:23.221Z,9.83
2022-10-11T08:31:47.326Z,10.30
2022-10-11T08:35:08.636Z,9.43
2022-10-11T08:38:29.718Z,9.77
2022-10-11T08:42:11.329Z,9.95
2022-10-11T08:45:44.345Z,9.63
2022-10-11T08:49:07.545Z,9.10
2022-10-11T08:52:34.818Z,10.43
2022-10-11T08:55:56.080Z,9.85
2022-10-11T08:59:39.966Z,10.90
2022-10-11T09:03:29.760Z,10.17
2022-10-11T09:07:26.816Z,9.90
2022-10-11T09:10:48.157Z,9.65
2022-10-11T09:13:56.503Z,8.80
2022-10-11T09:17:37.562Z,8.77
2022-10-11T09:20:40.236Z,8.67
2022-10-11T09:23:56.715Z,8.55
2022-10-11T09:27:09.929Z,8.35
2022-10-11T09:30:14.883Z,8.75
2022-10-11T09:33:18.807Z,8.55
2022-10-11T09:36:34.311Z,8.43
2022-10-11T09:39:42.199Z,7.47
2022-10-11T09:42:44.843Z,7.13
2022-10-11T09:45:49.616Z,7.70
2022-10-11T09:48:56.271Z,7.97
2022-10-11T09:52:02.440Z,8.17
2022-10-11T09:55:05.315Z,7.57
2022-10-11T09:58:40.307Z,7.93
2022-10-11T10:01:42.782Z,7.75
2022-10-11T10:05:07.135Z,7.78
2022-10-11T10:08:09.727Z,7.80
2022-10-11T10:11:12.743Z,7.88
2022-10-11T10:14:21.968Z,8.27
2022-10-11T10:17:24.410Z,8.65
2022-10-11T10:20:36.146Z,8.02
2022-10-11T10:23:38.873Z,7.73
2022-10-11T10:26:41.359Z,8.82
2022-10-11T10:30:00.666Z,8.82
2022-10-11T10:33:10.916Z,8.40
2022-10-11T10:36:21.842Z,8.35
2022-10-11T10:39:33.325Z,9.10
2022-10-11T10:42:36.411Z,8.57
2022-10-11T10:45:56.641Z,8.75
2022-10-11T10:49:51.887Z,8.43
2022-10-11T10:52:55.470Z,8.40
2022-10-11T10:56:22.224Z,8.90
2022-10-11T11:00:05.897Z,9.10
2022-10-11T11:03:47.891Z,8.27
2022-10-11T11:06:57.210Z,7.97
2022-10-11T11:10:32.824Z,8.18
2022-10-11T11:14:12.056Z,7.87
2022-10-11T11:17:22.898Z,8.75
2022-10-11T11:20:59.830Z,8.05
2022-10-11T11:24:08.879Z,8.50
2022-10-11T11:27:40.973Z,8.48
2022-10-11T11:31:04.806Z,9.17
2022-10-11T11:34:45.783Z,8.80
2022-10-11T11:37:54.099Z,8.98
2022-10-11T11:41:09.183Z,8.85
2022-10-11T11:44:23.852Z,9.38
2022-10-11T11:47:36.531Z,9.43
2022-10-11T11:50:43.818Z,9.20
2022-10-11T11:54:19.316Z,9.55
2022-10-11T11:57:38.871Z,9.77
2022-10-11T12:01:03.240Z,9.55
2022-10-11T12:04:36.107Z,9.57
2022-10-11T12:07:58.669Z,8.73
2022-10-11T12:11:08.653Z,9.65
2022-10-11T12:14:41.501Z,9.38
2022-10-11T12:17:56.058Z,9.77
2022-10-11T12:21:08.590Z,9.20
2022-10-11T12:24:21.542Z,8.63
2022-10-11T12:27:43.236Z,9.50
2022-10-11T12:30:50.768Z,9.07
2022-10-11T12:34:15.067Z,9.57
2022-10-11T12:37:17.525Z,9.77
2022-10-11T12:40:41.972Z,9.80
2022-10-11T12:43:50.495Z,9.55
2022-10-11T12:46:57.733Z,9.30
2022-10-11T12:50:27.983Z,9.20
2022-10-11T12:53:33.380Z,9.83
2022-10-11T12:56:42.141Z,10.48
2022-10-11T12:59:45.572Z,9.73
2022-10-11T13:02:49.493Z,9.32
2022-10-11T13:05:56.160Z,9.68
2022-10-11T13:09:09.695Z,10.13
2022-10-11T13:12:19.470Z,15.70
2022-10-11T13:15:24.293Z,14.95
2022-10-11T13:18:27.178Z,12.32
2022-10-11T13:21:34.641Z,11.05
2022-10-11T13:24:39.645Z,10.07
2022-10-11T13:27:42.741Z,10.95
2022-10-11T13:30:48.628Z,12.18
2022-10-11T13:33:55.135Z,13.18
2022-10-11T13:36:58.618Z,11.93
2022-10-11T13:40:01.197Z,12.90
2022-10-11T13:43:05.808Z,14.77
2022-10-11T13:46:17.507Z,10.57
2022-10-11T13:49:29.323Z,11.65
2022-10-11T13:52:32.484Z,11.07
2022-10-11T13:55:47.663Z,10.67
2022-10-11T13:58:52.755Z,10.82
2022-10-11T14:02:01.271Z,12.35
2022-10-11T14:05:03.817Z,11.90
2022-10-11T14:08:19.554Z,12.30
2022-10-11T14:11:39.850Z,10.90
2022-10-11T14:14:43.407Z,10.68
2022-10-11T14:17:52.504Z,10.70
2022-10-11T14:20:54.907Z,11.07
2022-10-11T14:24:00.844Z,10.95
2022-10-11T14:27:05.777Z,11.47
2022-10-11T14:30:27.467Z,11.73
2022-10-11T14:33:30.224Z,11.25
2022-10-11T14:36:32.696Z,11.75
2022-10-11T14:39:35.342Z,11.65
2022-10-11T14:42:37.677Z,11.83
2022-10-11T14:45:40.125Z,12.25
2022-10-11T14:48:54.953Z,13.13
2022-10-11T14:51:59.388Z,12.70
2022-10-11T14:55:02.218Z,12.98
2022-10-11T14:58:06.399Z,13.13
2022-10-11T15:01:16.160Z,13.80
2022-10-11T15:04:24.224Z,22.02
2022-10-11T15:07:26.740Z,25.05
2022-10-11T15:10:35.991Z,24.55
2022-10-11T15:13:38.453Z,24.27
2022-10-11T15:16:41.385Z,23.08
2022-10-11T15:19:43.764Z,21.45
2022-10-11T15:22:46.161Z,20.58
2022-10-11T15:25:48.543Z,20.38
2022-10-11T15:28:52.297Z,21.17
2022-10-11T15:31:54.796Z,18.92
2022-10-11T15:34:57.210Z,17.92
2022-10-11T15:38:00.269Z,18.15
2022-10-11T15:41:02.831Z,17.17
2022-10-11T15:44:05.342Z,15.57
2022-10-11T15:47:09.038Z,17.65
2022-10-11T15:50:13.805Z,21.30
2022-10-11T15:53:19.103Z,26.35
2022-10-11T15:56:21.472Z,33.50
2022-10-11T15:59:23.826Z,29.50
2022-10-11T16:02:26.400Z,43.38
2022-10-11T16:05:29.159Z,43.65
2022-10-11T16:08:31.710Z,56.63
2022-10-11T16:11:34.312Z,51.92
2022-10-11T16:14:36.702Z,63.63
2022-10-11T16:17:39.195Z,53.25
2022-10-11T16:20:45.195Z,39.97
2022-10-11T16:23:47.630Z,38.85
2022-10-11T16:26:50.896Z,43.88
2022-10-11T16:29:53.941Z,41.63
2022-10-11T16:32:56.525Z,37.42
2022-10-11T16:36:18.861Z,35.55
2022-10-11T16:39:21.460Z,37.38
2022-10-11T16:42:24.048Z,36.95
2022-10-11T16:45:26.502Z,35.80
2022-10-11T16:48:28.940Z,44.70
2022-10-11T16:51:31.380Z,32.70
2022-10-11T16:54:33.860Z,32.25
2022-10-11T16:57:37.815Z,34.00
2022-10-11T17:00:42.678Z,34.53
2022-10-11T17:03:45.306Z,33.35
2022-10-11T17:06:47.899Z,27.30
2022-10-11T17:09:50.723Z,20.95
2022-10-11T17:12:55.117Z,22.40
2022-10-11T17:15:57.912Z,20.70
2022-10-11T17:19:00.872Z,20.60
2022-10-11T17:22:03.258Z,21.92
2022-10-11T17:25:07.002Z,24.55
2022-10-11T17:28:09.804Z,21.40
2022-10-11T17:31:12.161Z,64.07
2022-10-11T17:34:16.149Z,41.10
2022-10-11T17:37:18.725Z,27.67
2022-10-11T17:40:22.023Z,31.17
2022-10-11T17:43:24.882Z,24.15
2022-10-11T17:46:32.284Z,31.17
2022-10-11T17:49:34.810Z,44.90
2022-10-11T17:52:37.247Z,39.70
2022-10-11T17:55:43.742Z,27.20
2022-10-11T17:58:47.074Z,22.10
2022-10-11T18:01:50.282Z,36.93
2022-10-11T18:04:52.716Z,41.55
2022-10-11T18:07:55.691Z,53.50
2022-10-11T18:10:58.093Z,58.60
2022-10-11T18:14:00.577Z,43.53
2022-10-11T18:17:03.611Z,42.00
2022-10-11T18:20:06.626Z,26.65
2022-10-11T18:23:09.089Z,25.63
2022-10-11T18:26:16.591Z,18.52
2022-10-11T18:29:19.082Z,12.38
2022-10-11T18:32:21.488Z,13.40
2022-10-11T18:35:25.087Z,16.80
2022-10-11T18:38:27.731Z,15.85
2022-10-11T18:41:32.161Z,15.45
2022-10-11T18:44:34.686Z,16.50
2022-10-11T18:47:37.424Z,21.03
2022-10-11T18:50:40.434Z,29.33
2022-10-11T18:53:42.760Z,27.63
2022-10-11T18:56:45.292Z,22.90
2022-10-11T18:59:47.827Z,25.23
2022-10-11T19:02:51.002Z,25.30
2022-10-11T19:05:53.474Z,25.85
2022-10-11T19:09:04.888Z,24.90
2022-10-11T19:12:07.552Z,24.75
2022-10-11T19:15:11.451Z,25.77
2022-10-11T19:18:15.938Z,25.57
2022-10-11T19:21:22.912Z,24.52
2022-10-11T19:24:28.325Z,24.42
2022-10-11T19:27:30.683Z,18.60
2022-10-11T19:30:33.612Z,16.98
2022-10-11T19:33:36.756Z,18.50
2022-10-11T19:36:42.290Z,18.38
2022-10-11T19:39:44.677Z,15.65
2022-10-11T19:42:47.102Z,15.57
2022-10-11T19:45:49.491Z,16.55
2022-10-11T19:48:52.279Z,14.50
2022-10-11T19:51:55.467Z,13.13
2022-10-11T19:54:58.001Z,13.82
2022-10-11T19:58:03.406Z,12.75
2022-10-11T20:01:12.152Z,13.55
2022-10-11T20:04:33.098Z,12.30
2022-10-11T20:07:37.119Z,12.20
2022-10-11T20:10:39.733Z,10.43
2022-10-11T20:13:42.255Z,9.82
2022-10-11T20:16:44.657Z,9.35
2022-10-11T20:19:47.029Z,9.80
2022-10-11T20:22:49.437Z,9.18
2022-10-11T20:26:02.018Z,8.90
2022-10-11T20:29:04.535Z,8.07
2022-10-11T20:32:06.880Z,8.60
2022-10-11T20:35:10.444Z,8.93
2022-10-11T20:38:12.816Z,7.95
2022-10-11T20:41:18.675Z,8.07
2022-10-11T20:44:21.035Z,7.57
2022-10-11T20:47:23.361Z,7.68
2022-10-11T20:50:25.750Z,7.90
2022-10-11T20:53:29.366Z,8.27
2022-10-11T20:56:32.412Z,8.48
2022-10-11T20:59:34.751Z,8.27
2022-10-11T21:02:38.020Z,8.18
2022-10-11T21:05:40.951Z,8.70
2022-10-11T21:08:43.375Z,9.05
2022-10-11T21:11:46.027Z,8.65
2022-10-11T21:14:48.477Z,7.97
2022-10-11T21:17:51.420Z,8.52
2022-10-11T21:20:53.804Z,8.47
2022-10-11T21:24:01.511Z,8.23
2022-10-11T21:27:03.864Z,9.65
2022-10-11T21:30:06.680Z,9.50
2022-10-11T21:33:09.100Z,8.63
2022-10-11T21:36:17.614Z,8.30
2022-10-11T21:39:20.057Z,8.65
2022-10-11T21:42:27.136Z,8.45
2022-10-11T21:45:31.687Z,8.77
2022-10-11T21:48:34.232Z,9.68
2022-10-11T21:51:36.668Z,8.77
2022-10-11T21:54:39.255Z,9.73
2022-10-11T21:57:42.867Z,10.25
2022-10-11T22:00:46.907Z,8.95
2022-10-11T22:03:49.476Z,9.68
2022-10-11T22:06:51.855Z,9.80
2022-10-11T22:09:54.309Z,10.10
2022-10-11T22:12:56.978Z,9.77
2022-10-11T22:16:06.985Z,9.70
2022-10-11T22:19:09.459Z,10.20
2022-10-11T22:22:11.870Z,10.40
2022-10-11T22:25:14.261Z,10.50
2022-10-11T22:28:16.665Z,10.48
2022-10-11T22:31:20.321Z,10.55
2022-10-11T22:34:22.782Z,10.55
2022-10-11T22:37:25.127Z,10.00
2022-10-11T22:40:27.548Z,10.35
2022-10-11T22:43:30.065Z,10.10
2022-10-11T22:46:32.459Z,9.35
2022-10-11T22:49:34.950Z,10.02
2022-10-11T22:52:37.442Z,11.20
2022-10-11T22:55:40.314Z,10.65
2022-10-11T22:58:42.696Z,9.93
2022-10-11T23:01:45.043Z,8.45
2022-10-11T23:04:47.879Z,11.15
2022-10-11T23:07:50.568Z,8.70
2022-10-11T23:10:53.337Z,9.75
2022-10-11T23:13:55.693Z,10.98
2022-10-11T23:16:58.092Z,9.20
2022-10-11T23:20:00.617Z,10.05
2022-10-11T23:23:02.971Z,9.20
2022-10-11T23:26:12.141Z,8.32
2022-10-11T23:29:14.539Z,9.50
2022-10-11T23:32:16.980Z,9.98
2022-10-11T23:35:19.358Z,10.15
2022-10-11T23:38:21.954Z,8.50
2022-10-11T23:41:26.839Z,9.05
2022-10-11T23:44:29.198Z,7.53
2022-10-11T23:47:31.683Z,7.53
2022-10-11T23:50:34.739Z,7.75
2022-10-11T23:53:37.521Z,8.23
2022-10-11T23:56:40.017Z,8.05
2022-10-11T23:59:42.355Z,8.15
